SAINT11 ENBO-ENOL

Flight info

Callsign SAINT11
Flight time N/A
Altitude 32000
Route DISMU DCT GEPLO
Aircraft F16/M-SDGHITUY/LB2

Departure

Time 2026-05-05 10:57
Airport Bodø Airport (ENBO)

Arrival

Time N/A
Airport Ørland Airport (ENOL)
Time Latitude Longitude Altitude Speed Heading
2026-05-05 10:41 67.26819 14.38629 50 ft 0 kts
2026-05-05 10:54 67.26829 14.38634 50 ft 0 kts
2026-05-05 10:55 67.26831 14.38635 50 ft 2 kts
2026-05-05 10:55 67.26865 14.38582 52 ft 8 kts 303°
2026-05-05 10:55 67.26924 14.38483 55 ft 10 kts 349°
2026-05-05 10:55 67.26986 14.38450 56 ft 6 kts 346°
2026-05-05 10:56 67.27019 14.38432 56 ft 9 kts 347°
2026-05-05 10:56 67.27071 14.38286 56 ft 19 kts 259°
2026-05-05 10:56 67.26975 14.37188 57 ft 108 kts 257°
2026-05-05 10:56 67.26764 14.34589 113 ft 171 kts 257°
2026-05-05 10:57 67.26789 14.31295 497 ft 202 kts 297°
2026-05-05 10:57 67.28057 14.29703 489 ft 257 kts 33°
2026-05-05 10:57 67.28951 14.33478 605 ft 287 kts 72°
2026-05-05 10:57 67.29553 14.38196 1037 ft 240 kts 72°
2026-05-05 10:58 67.29903 14.41981 1138 ft 209 kts 81°
2026-05-05 10:58 67.29759 14.45469 1130 ft 193 kts 132°
2026-05-05 10:58 67.28611 14.46315 914 ft 190 kts 221°
2026-05-05 10:58 67.27631 14.44133 553 ft 175 kts 256°
2026-05-05 10:59 67.27269 14.40891 254 ft 191 kts 258°
2026-05-05 10:59 67.27051 14.37824 58 ft 156 kts 255°
2026-05-05 10:59 67.26831 14.35426 53 ft 100 kts 257°
2026-05-05 10:59 67.26740 14.34326 34 ft 29 kts 256°
2026-05-05 11:00 67.26685 14.33764 20 ft 18 kts 259°